Bear River Pines, California
Current Conditions -  °F | °C
As of 4:40 AM on Friday 31 Oct 2014 (Local Time) from KGOO Reporting Station
Broken Clouds Broken Clouds  
Wind Chill: 50°   Ceiling: 12000
Heat Index: 50°   Visibility: 10mi
Dew Point: 45°   Wind: 6mph
Humidity: 82%   Direction: 120°ESE
Pressure: 29.95"   Gusts: NA
Location:  39.2183°N, 120.924°W
Report Text: KGOO 311140Z AUTO 12005KT 10SM BKN120 10/07 A2995 RMK AO1
Loading
Personal Weather Stations






























Interactive Weather Map
Tropical Storm Tracking
New forecast layout! Learn more

10-Day Weather Forecast

Advertisements
Track Severe Weather on mobile